Time;durP1;ratioP1;P1;durP2;ratioP2;P2;SDS_P1;SDS_P2;PMS_P1;PMS_P2;Temp;Humidity;BMP_temperature;BMP_pressure;BME280_temperature;BME280_humidity;BME280_pressure;Samples;Min_cycle;Max_cycle;Signal;HPM_P1;HPM_P2
2023/08/19 00:01:52;;;;;;;8.80;3.85;;;;;;;;;;5035904;28;20151;-65
2023/08/19 00:04:17;;;;;;;9.98;4.68;;;;;;;;;;5037350;28;20497;-65
2023/08/19 00:06:43;;;;;;;15.02;5.00;;;;;;;;;;5029253;28;20038;-65
2023/08/19 00:09:10;;;;;;;15.15;5.03;;;;;;;;;;5034345;28;20056;-65
2023/08/19 00:11:37;;;;;;;13.45;4.32;;;;;;;;;;5028044;28;20041;-65
2023/08/19 00:14:05;;;;;;;11.38;5.65;;;;;;;;;;5027451;28;20101;-65
2023/08/19 00:16:32;;;;;;;15.63;5.03;;;;;;;;;;5027438;28;20097;-65
2023/08/19 00:18:58;;;;;;;12.40;4.50;;;;;;;;;;5027867;28;20100;-66
2023/08/19 00:21:24;;;;;;;10.48;5.13;;;;;;;;;;5008406;28;20124;-64
2023/08/19 00:23:50;;;;;;;10.25;4.55;;;;;;;;;;5025529;28;20032;-65
2023/08/19 00:26:17;;;;;;;16.83;5.15;;;;;;;;;;5027532;28;20191;-65
2023/08/19 00:28:43;;;;;;;10.32;4.40;;;;;;;;;;5028078;28;20390;-65
2023/08/19 00:31:09;;;;;;;7.20;4.32;;;;;;;;;;5027548;28;20502;-64
2023/08/19 00:33:35;;;;;;;8.82;4.00;;;;;;;;;;5027645;28;20071;-65
2023/08/19 00:36:02;;;;;;;12.55;4.10;;;;;;;;;;5026023;28;20037;-65
2023/08/19 00:38:29;;;;;;;10.55;4.63;;;;;;;;;;5023152;28;20037;-64
2023/08/19 00:40:55;;;;;;;8.10;4.20;;;;;;;;;;5023013;28;20045;-65
2023/08/19 00:43:21;;;;;;;7.07;4.15;;;;;;;;;;5032506;28;20033;-65
2023/08/19 00:45:48;;;;;;;5.32;3.58;;;;;;;;;;5037409;28;20574;-65
2023/08/19 00:48:15;;;;;;;8.15;4.22;;;;;;;;;;5020217;28;20030;-65
2023/08/19 00:50:41;;;;;;;9.68;4.32;;;;;;;;;;5029741;28;20037;-65
2023/08/19 00:53:08;;;;;;;13.82;4.15;;;;;;;;;;5029423;28;20035;-65
2023/08/19 00:55:35;;;;;;;10.13;4.70;;;;;;;;;;5029356;28;20120;-65
2023/08/19 00:58:03;;;;;;;10.27;3.83;;;;;;;;;;5030134;28;20037;-65
2023/08/19 01:00:31;;;;;;;9.95;4.63;;;;;;;;;;5028579;28;20040;-65
2023/08/19 01:02:57;;;;;;;18.13;4.80;;;;;;;;;;5041561;28;20024;-65
2023/08/19 01:05:40;;;;;;;10.88;4.57;;;;;;;;;;5051073;28;20030;-65
2023/08/19 01:08:11;;;;;;;11.65;4.47;;;;;;;;;;5026530;28;20092;-65
2023/08/19 01:11:12;;;;;;;6.25;4.10;;;;;;;;;;5020563;28;20036;-65
2023/08/19 01:13:52;;;;;;;6.45;4.50;;;;;;;;;;5030544;28;20049;-66
2023/08/19 01:16:24;;;;;;;12.95;4.05;;;;;;;;;;5030343;28;20037;-65
2023/08/19 01:18:52;;;;;;;12.05;4.38;;;;;;;;;;5030741;28;20089;-65
2023/08/19 01:21:17;;;;;;;10.20;4.30;;;;;;;;;;5030477;28;20029;-65
2023/08/19 01:23:47;;;;;;;10.55;3.83;;;;;;;;;;5039612;28;20044;-65
2023/08/19 01:26:16;;;;;;;7.40;4.10;;;;;;;;;;5039071;28;20094;-65
2023/08/19 01:28:42;;;;;;;6.85;3.85;;;;;;;;;;5042644;28;20041;-65
2023/08/19 01:31:08;;;;;;;7.43;4.50;;;;;;;;;;5031843;28;20496;-65
2023/08/19 01:33:34;;;;;;;8.18;3.80;;;;;;;;;;5025815;28;20342;-65
2023/08/19 01:36:26;;;;;;;11.00;3.80;;;;;;;;;;5022711;28;20060;-65
2023/08/19 01:39:03;;;;;;;12.13;3.95;;;;;;;;;;5029364;28;20033;-65
2023/08/19 01:41:31;;;;;;;8.27;4.03;;;;;;;;;;5030435;28;20033;-65
2023/08/19 01:43:58;;;;;;;8.27;4.10;;;;;;;;;;5029114;28;20112;-65
2023/08/19 01:46:24;;;;;;;8.57;4.45;;;;;;;;;;5030007;28;20053;-65
2023/08/19 01:48:50;;;;;;;8.85;4.43;;;;;;;;;;5030391;28;20108;-65
2023/08/19 01:51:16;;;;;;;9.68;3.92;;;;;;;;;;5028953;28;20120;-65
2023/08/19 01:53:41;;;;;;;13.48;4.45;;;;;;;;;;5025557;28;20026;-65
2023/08/19 01:56:07;;;;;;;7.13;4.20;;;;;;;;;;5025259;28;20080;-65
2023/08/19 01:58:33;;;;;;;6.90;4.03;;;;;;;;;;5013900;28;20061;-65
2023/08/19 02:00:59;;;;;;;8.85;3.60;;;;;;;;;;5025542;28;20059;-65
2023/08/19 02:03:25;;;;;;;6.97;3.80;;;;;;;;;;5025361;28;20033;-65
2023/08/19 02:05:51;;;;;;;10.20;4.30;;;;;;;;;;5008234;28;20447;-65
2023/08/19 02:08:16;;;;;;;8.40;4.05;;;;;;;;;;5023615;28;20056;-65
2023/08/19 02:10:42;;;;;;;8.23;4.03;;;;;;;;;;5028576;28;20037;-65
2023/08/19 02:13:09;;;;;;;6.97;4.20;;;;;;;;;;5029753;28;20036;-65
2023/08/19 02:15:34;;;;;;;9.52;4.20;;;;;;;;;;5028143;28;20506;-65
2023/08/19 02:18:00;;;;;;;6.57;3.78;;;;;;;;;;5029617;28;20037;-65
2023/08/19 02:20:26;;;;;;;6.93;3.60;;;;;;;;;;5027660;28;20087;-65
2023/08/19 02:22:53;;;;;;;9.38;4.03;;;;;;;;;;5030225;28;20025;-65
2023/08/19 02:25:19;;;;;;;8.50;4.70;;;;;;;;;;5035260;28;20034;-66
2023/08/19 02:27:45;;;;;;;6.90;4.38;;;;;;;;;;5028576;28;20414;-65
2023/08/19 02:30:11;;;;;;;10.10;4.72;;;;;;;;;;5027770;28;20049;-65
2023/08/19 02:32:40;;;;;;;6.75;4.22;;;;;;;;;;5029082;28;20096;-65
2023/08/19 02:35:06;;;;;;;11.02;5.07;;;;;;;;;;5028674;28;20415;-65
2023/08/19 02:37:32;;;;;;;7.30;4.57;;;;;;;;;;5029329;28;20487;-65
2023/08/19 02:39:58;;;;;;;9.02;4.53;;;;;;;;;;5028174;28;20217;-65
2023/08/19 02:42:23;;;;;;;10.30;4.53;;;;;;;;;;5028544;28;20040;-64
2023/08/19 02:44:49;;;;;;;9.48;4.25;;;;;;;;;;5027635;28;20026;-65
2023/08/19 02:47:15;;;;;;;8.02;4.22;;;;;;;;;;5036486;28;20035;-65
2023/08/19 02:49:42;;;;;;;8.85;4.28;;;;;;;;;;5029173;28;20033;-64
2023/08/19 02:52:08;;;;;;;10.25;3.78;;;;;;;;;;5038789;28;20681;-65
2023/08/19 02:54:34;;;;;;;8.88;4.10;;;;;;;;;;5038818;28;20116;-64
2023/08/19 02:56:59;;;;;;;7.75;3.97;;;;;;;;;;5032051;28;20116;-65
2023/08/19 02:59:25;;;;;;;9.43;4.38;;;;;;;;;;5050360;28;20476;-65
2023/08/19 03:01:51;;;;;;;8.73;3.97;;;;;;;;;;5045026;28;20030;-65
2023/08/19 03:04:16;;;;;;;8.38;4.07;;;;;;;;;;5040549;28;20037;-66
2023/08/19 03:06:42;;;;;;;12.20;4.50;;;;;;;;;;5040342;28;20030;-64
2023/08/19 03:09:08;;;;;;;12.70;4.65;;;;;;;;;;5039016;28;20040;-65
2023/08/19 03:11:35;;;;;;;14.35;4.68;;;;;;;;;;5032153;28;20030;-65
2023/08/19 03:14:01;;;;;;;6.82;4.35;;;;;;;;;;5042383;28;20036;-64
2023/08/19 03:16:26;;;;;;;5.80;3.88;;;;;;;;;;5020009;28;20026;-65
2023/08/19 03:18:52;;;;;;;8.10;3.92;;;;;;;;;;5030789;28;20061;-65
2023/08/19 03:21:18;;;;;;;6.93;4.05;;;;;;;;;;5029332;28;20076;-65
2023/08/19 03:23:44;;;;;;;11.18;4.22;;;;;;;;;;5040283;28;20487;-65
2023/08/19 03:26:11;;;;;;;9.45;4.75;;;;;;;;;;5022280;28;20032;-65
2023/08/19 03:28:37;;;;;;;10.65;4.63;;;;;;;;;;5040233;28;20035;-65
2023/08/19 03:31:10;;;;;;;11.90;4.60;;;;;;;;;;5037827;28;20299;-65
2023/08/19 03:33:37;;;;;;;;;;;;;;;;;;5030679;28;20164;-66
2023/08/19 03:36:03;;;;;;;8.60;4.55;;;;;;;;;;5039534;28;19949;-64
2023/08/19 03:38:29;;;;;;;8.73;4.43;;;;;;;;;;5042146;28;20452;-65
2023/08/19 03:40:55;;;;;;;13.38;4.82;;;;;;;;;;5033723;28;20036;-65
2023/08/19 03:43:20;;;;;;;11.57;4.78;;;;;;;;;;5017622;28;20034;-65
2023/08/19 03:45:46;;;;;;;10.23;4.40;;;;;;;;;;5026778;28;20495;-65
2023/08/19 03:48:13;;;;;;;10.73;4.13;;;;;;;;;;5022273;28;20037;-65
2023/08/19 03:50:39;;;;;;;8.63;4.13;;;;;;;;;;5037273;28;20033;-65
2023/08/19 03:53:05;;;;;;;9.48;4.28;;;;;;;;;;5033669;28;20487;-65
2023/08/19 03:55:31;;;;;;;6.57;4.20;;;;;;;;;;5037205;28;20120;-65
2023/08/19 03:57:57;;;;;;;8.48;4.35;;;;;;;;;;5038531;28;20029;-65
2023/08/19 04:00:23;;;;;;;12.68;4.70;;;;;;;;;;5038565;28;20022;-65
2023/08/19 04:02:49;;;;;;;8.30;4.40;;;;;;;;;;5038523;28;20029;-65
2023/08/19 04:05:15;;;;;;;7.47;4.18;;;;;;;;;;5038431;28;20024;-65
2023/08/19 04:07:41;;;;;;;8.05;4.43;;;;;;;;;;5035209;28;20169;-65
2023/08/19 04:10:08;;;;;;;7.15;4.28;;;;;;;;;;5038905;28;20034;-65
2023/08/19 04:12:34;;;;;;;10.50;4.65;;;;;;;;;;5032409;28;20029;-65
2023/08/19 04:15:00;;;;;;;10.25;4.40;;;;;;;;;;5041124;28;20026;-66
2023/08/19 04:17:26;;;;;;;9.80;5.78;;;;;;;;;;5041772;28;20465;-65
2023/08/19 04:19:52;;;;;;;10.02;5.13;;;;;;;;;;5042795;28;20104;-65
2023/08/19 04:22:18;;;;;;;7.97;4.45;;;;;;;;;;5038372;28;20034;-65
2023/08/19 04:24:51;;;;;;;8.27;4.63;;;;;;;;;;5026869;28;20035;-65
2023/08/19 04:27:17;;;;;;;11.73;4.63;;;;;;;;;;5027708;28;20037;-65
2023/08/19 04:29:43;;;;;;;10.68;4.65;;;;;;;;;;5045674;28;20145;-65
2023/08/19 04:32:09;;;;;;;13.25;5.10;;;;;;;;;;5042907;28;20036;-65
2023/08/19 04:34:36;;;;;;;18.20;4.72;;;;;;;;;;5041950;28;20156;-65
2023/08/19 04:37:03;;;;;;;10.18;4.65;;;;;;;;;;5041837;28;20028;-65
2023/08/19 04:39:31;;;;;;;7.43;4.10;;;;;;;;;;5039304;28;20439;-65
2023/08/19 04:42:03;;;;;;;9.82;4.30;;;;;;;;;;5043671;28;20124;-65
2023/08/19 04:44:30;;;;;;;8.63;4.45;;;;;;;;;;5033680;28;20128;-64
2023/08/19 04:46:57;;;;;;;11.70;4.05;;;;;;;;;;5041726;28;20498;-65
2023/08/19 04:49:24;;;;;;;9.10;4.10;;;;;;;;;;5041676;28;20030;-64
2023/08/19 04:51:50;;;;;;;8.40;4.45;;;;;;;;;;5033710;28;20036;-65
2023/08/19 04:54:16;;;;;;;7.72;3.88;;;;;;;;;;5037795;28;20402;-65
2023/08/19 04:56:42;;;;;;;11.13;4.55;;;;;;;;;;5038255;28;20048;-65
2023/08/19 04:59:08;;;;;;;9.65;3.53;;;;;;;;;;5040354;28;20041;-64
2023/08/19 05:01:34;;;;;;;8.30;4.10;;;;;;;;;;5033567;28;20411;-65
2023/08/19 05:04:00;;;;;;;9.73;3.97;;;;;;;;;;5024873;28;20055;-64
2023/08/19 05:06:26;;;;;;;7.50;3.90;;;;;;;;;;5041201;28;20481;-65
2023/08/19 05:08:52;;;;;;;9.32;3.92;;;;;;;;;;5041363;28;20120;-65
2023/08/19 05:11:17;;;;;;;7.97;3.70;;;;;;;;;;5042588;28;20112;-65
2023/08/19 05:13:44;;;;;;;12.18;3.50;;;;;;;;;;5041336;28;20060;-65
2023/08/19 05:16:12;;;;;;;6.38;3.58;;;;;;;;;;5051954;28;20540;-65
2023/08/19 05:18:38;;;;;;;11.15;3.90;;;;;;;;;;5052959;28;20033;-65
2023/08/19 05:21:04;;;;;;;9.75;3.17;;;;;;;;;;5053932;28;20029;-64
2023/08/19 05:23:30;;;;;;;5.05;3.15;;;;;;;;;;5054194;28;20072;-66
2023/08/19 05:25:55;;;;;;;8.95;3.40;;;;;;;;;;5053074;28;20056;-66
2023/08/19 05:28:21;;;;;;;6.43;3.30;;;;;;;;;;5054315;28;20033;-65
2023/08/19 05:30:47;;;;;;;8.63;3.60;;;;;;;;;;5054248;28;20439;-65
2023/08/19 05:33:12;;;;;;;10.45;3.63;;;;;;;;;;5053876;28;20037;-66
2023/08/19 05:35:38;;;;;;;7.10;3.47;;;;;;;;;;5053902;28;20069;-65
2023/08/19 05:38:04;;;;;;;8.13;3.70;;;;;;;;;;5053831;28;20082;-65
2023/08/19 05:40:30;;;;;;;11.65;3.95;;;;;;;;;;5053882;28;20524;-66
2023/08/19 05:42:55;;;;;;;11.73;3.60;;;;;;;;;;5053950;28;20041;-66
2023/08/19 05:45:21;;;;;;;8.90;3.33;;;;;;;;;;5052522;28;20490;-66
2023/08/19 05:47:47;;;;;;;6.63;3.35;;;;;;;;;;5053640;28;20029;-65
2023/08/19 05:50:12;;;;;;;9.65;3.88;;;;;;;;;;5053737;28;20024;-66
2023/08/19 05:52:38;;;;;;;13.07;3.65;;;;;;;;;;5053820;28;20076;-65
2023/08/19 05:55:04;;;;;;;12.77;3.80;;;;;;;;;;5053576;28;20029;-66
2023/08/19 05:57:30;;;;;;;12.30;3.60;;;;;;;;;;5053459;28;20036;-66
2023/08/19 05:59:55;;;;;;;12.05;3.50;;;;;;;;;;5052518;28;20029;-66
2023/08/19 06:02:21;;;;;;;8.68;3.55;;;;;;;;;;5052109;28;20041;-66
2023/08/19 06:04:47;;;;;;;10.30;3.90;;;;;;;;;;5053526;28;20083;-65
2023/08/19 06:07:12;;;;;;;11.23;3.67;;;;;;;;;;5053062;28;20372;-65
2023/08/19 06:09:38;;;;;;;12.27;4.20;;;;;;;;;;5053473;28;20029;-65
2023/08/19 06:12:04;;;;;;;14.65;4.03;;;;;;;;;;5053285;28;20114;-65
2023/08/19 06:14:30;;;;;;;16.67;4.22;;;;;;;;;;5053056;28;20017;-65
2023/08/19 06:16:55;;;;;;;14.23;4.15;;;;;;;;;;5053058;28;20078;-65
2023/08/19 06:19:21;;;;;;;11.88;4.00;;;;;;;;;;5053182;28;20471;-65
2023/08/19 06:21:47;;;;;;;8.30;3.50;;;;;;;;;;5051943;28;20052;-65
2023/08/19 06:24:12;;;;;;;12.63;3.58;;;;;;;;;;5041249;28;20621;-65
2023/08/19 06:26:38;;;;;;;9.88;3.72;;;;;;;;;;5044533;28;20037;-65
2023/08/19 06:29:04;;;;;;;8.20;3.58;;;;;;;;;;5042861;28;20463;-65
2023/08/19 06:31:31;;;;;;;10.88;3.10;;;;;;;;;;5052832;28;20041;-67
2023/08/19 06:33:57;;;;;;;9.80;3.50;;;;;;;;;;5052827;28;20024;-65
2023/08/19 06:36:28;;;;;;;6.25;3.30;;;;;;;;;;5052467;28;20463;-67
2023/08/19 06:39:06;;;;;;;11.88;3.25;;;;;;;;;;5035853;28;20037;-66
2023/08/19 06:41:35;;;;;;;9.25;3.72;;;;;;;;;;5031687;28;20033;-66
2023/08/19 06:44:03;;;;;;;6.85;2.80;;;;;;;;;;5032708;28;20045;-65
2023/08/19 06:46:31;;;;;;;9.70;3.90;;;;;;;;;;5032424;28;20029;-65
2023/08/19 06:48:58;;;;;;;17.48;3.45;;;;;;;;;;5031325;28;20068;-66
2023/08/19 06:51:24;;;;;;;10.85;3.15;;;;;;;;;;5031855;28;20041;-66
2023/08/19 06:53:50;;;;;;;6.75;3.10;;;;;;;;;;5032595;28;20033;-66
2023/08/19 06:56:21;;;;;;;13.60;3.60;;;;;;;;;;5032167;28;20026;-66
2023/08/19 06:59:20;;;;;;;6.80;3.20;;;;;;;;;;5032252;28;20107;-66
2023/08/19 07:01:51;;;;;;;5.07;2.65;;;;;;;;;;5031285;28;20116;-67
2023/08/19 07:04:27;;;;;;;12.83;3.13;;;;;;;;;;5032148;28;20094;-68
2023/08/19 07:06:58;;;;;;;14.35;3.08;;;;;;;;;;5031920;28;20044;-67
2023/08/19 07:09:25;;;;;;;9.13;2.67;;;;;;;;;;5032102;28;20091;-68
2023/08/19 07:11:55;;;;;;;5.95;2.70;;;;;;;;;;5031870;28;20025;-67
2023/08/19 07:14:25;;;;;;;8.48;2.58;;;;;;;;;;5031307;28;20503;-66
2023/08/19 07:16:52;;;;;;;5.95;1.90;;;;;;;;;;5032069;28;20040;-66
2023/08/19 07:19:33;;;;;;;3.95;2.13;;;;;;;;;;5030621;28;20395;-67
2023/08/19 07:21:59;;;;;;;5.32;2.15;;;;;;;;;;5031565;28;20052;-66
2023/08/19 07:24:25;;;;;;;3.53;2.22;;;;;;;;;;5030323;28;20021;-67
2023/08/19 07:26:51;;;;;;;4.40;2.17;;;;;;;;;;5031988;28;20037;-64
2023/08/19 07:29:17;;;;;;;7.03;2.45;;;;;;;;;;5032035;28;20030;-66
2023/08/19 07:31:44;;;;;;;6.57;2.08;;;;;;;;;;5030667;28;20035;-67
2023/08/19 07:34:09;;;;;;;4.10;2.17;;;;;;;;;;5031490;28;20496;-67
2023/08/19 07:36:35;;;;;;;4.70;1.95;;;;;;;;;;5031393;28;20108;-67
2023/08/19 07:39:03;;;;;;;5.70;2.35;;;;;;;;;;5030109;28;20021;-65
2023/08/19 07:41:29;;;;;;;6.43;1.83;;;;;;;;;;5031850;28;20044;-68
2023/08/19 07:43:55;;;;;;;4.43;2.00;;;;;;;;;;5037951;28;20012;-67
2023/08/19 07:46:21;;;;;;;4.20;2.00;;;;;;;;;;5039124;28;20113;-67
2023/08/19 07:48:46;;;;;;;6.15;2.28;;;;;;;;;;5043318;28;20364;-66
2023/08/19 07:51:13;;;;;;;7.35;2.20;;;;;;;;;;5033742;28;20111;-67
2023/08/19 07:53:39;;;;;;;8.00;2.10;;;;;;;;;;5031218;28;20125;-68
2023/08/19 07:56:05;;;;;;;4.55;1.95;;;;;;;;;;5039764;28;20029;-69
2023/08/19 07:58:32;;;;;;;6.00;1.83;;;;;;;;;;5051321;28;20021;-69
2023/08/19 08:00:58;;;;;;;4.75;2.15;;;;;;;;;;5051245;28;20048;-68
2023/08/19 08:03:24;;;;;;;6.95;2.38;;;;;;;;;;5053931;28;20029;-68
2023/08/19 08:05:50;;;;;;;4.28;2.10;;;;;;;;;;5055015;28;20032;-68
2023/08/19 08:08:16;;;;;;;5.75;2.17;;;;;;;;;;5055362;28;20111;-69
2023/08/19 08:10:41;;;;;;;4.93;1.88;;;;;;;;;;5055193;28;20088;-68
2023/08/19 08:13:07;;;;;;;4.68;2.22;;;;;;;;;;5026732;28;20125;-68
2023/08/19 08:15:33;;;;;;;4.82;2.20;;;;;;;;;;5034536;28;20038;-68
2023/08/19 08:17:59;;;;;;;7.18;2.13;;;;;;;;;;5033312;28;20075;-68
2023/08/19 08:20:24;;;;;;;3.00;2.03;;;;;;;;;;5034099;28;20087;-68
2023/08/19 08:22:50;;;;;;;6.55;2.10;;;;;;;;;;5034991;28;20349;-68
2023/08/19 08:25:16;;;;;;;4.60;2.03;;;;;;;;;;5037429;28;20029;-68
2023/08/19 08:27:42;;;;;;;4.97;2.15;;;;;;;;;;5043017;28;20117;-67
2023/08/19 08:30:08;;;;;;;5.32;2.08;;;;;;;;;;5042454;28;20113;-68
2023/08/19 08:32:33;;;;;;;6.25;2.10;;;;;;;;;;5050063;28;20032;-67
2023/08/19 08:34:59;;;;;;;3.80;2.30;;;;;;;;;;5044290;28;20040;-68
2023/08/19 08:37:25;;;;;;;4.90;2.13;;;;;;;;;;5032854;28;20025;-68
2023/08/19 08:39:51;;;;;;;5.90;2.10;;;;;;;;;;5034475;28;20056;-67
2023/08/19 08:42:17;;;;;;;4.20;2.17;;;;;;;;;;5042275;28;20029;-68
2023/08/19 08:44:46;;;;;;;7.65;2.30;;;;;;;;;;5042693;28;20037;-67
2023/08/19 08:47:14;;;;;;;4.60;2.15;;;;;;;;;;5042569;28;20033;-67
2023/08/19 08:49:40;;;;;;;7.93;2.30;;;;;;;;;;5042306;28;20116;-67
2023/08/19 08:52:06;;;;;;;4.60;2.40;;;;;;;;;;5034719;28;20033;-67
2023/08/19 08:54:33;;;;;;;6.32;2.10;;;;;;;;;;5034404;28;20099;-67
2023/08/19 08:57:01;;;;;;;7.47;2.50;;;;;;;;;;5034059;28;20029;-68
2023/08/19 08:59:28;;;;;;;5.05;2.53;;;;;;;;;;5034321;28;20037;-67
2023/08/19 09:01:56;;;;;;;7.13;1.90;;;;;;;;;;5034323;28;20029;-67
2023/08/19 09:04:23;;;;;;;8.23;2.30;;;;;;;;;;5034588;28;20098;-67
2023/08/19 09:06:56;;;;;;;5.47;2.45;;;;;;;;;;5034171;28;20057;-67
2023/08/19 09:09:23;;;;;;;;;;;;;;;;;;5034256;28;20065;-69
2023/08/19 09:11:52;;;;;;;9.40;3.28;;;;;;;;;;5034107;28;19917;-68
2023/08/19 09:14:32;;;;;;;7.07;2.50;;;;;;;;;;5033315;28;20041;-68
2023/08/19 09:16:58;;;;;;;8.07;2.63;;;;;;;;;;5034231;28;20041;-69
2023/08/19 09:19:24;;;;;;;5.95;2.30;;;;;;;;;;5033749;28;20048;-68
2023/08/19 09:21:49;;;;;;;4.13;2.20;;;;;;;;;;5033633;28;20037;-68
2023/08/19 09:24:16;;;;;;;5.05;2.40;;;;;;;;;;5033905;28;20029;-68
2023/08/19 09:26:44;;;;;;;8.35;2.38;;;;;;;;;;5034208;28;20036;-67
2023/08/19 09:29:10;;;;;;;7.80;2.45;;;;;;;;;;5033619;28;20479;-68
2023/08/19 09:31:38;;;;;;;7.90;2.40;;;;;;;;;;5033790;28;20037;-68
2023/08/19 09:34:04;;;;;;;11.23;2.60;;;;;;;;;;5032130;28;20025;-67
2023/08/19 09:36:30;;;;;;;6.47;2.25;;;;;;;;;;5032660;28;20037;-67
2023/08/19 09:38:56;;;;;;;2.70;2.00;;;;;;;;;;5031961;28;20068;-66
2023/08/19 09:41:32;;;;;;;6.32;2.55;;;;;;;;;;5031699;28;20033;-66
2023/08/19 09:43:58;;;;;;;7.88;2.92;;;;;;;;;;5033748;28;20048;-67
2023/08/19 09:46:33;;;;;;;4.03;2.50;;;;;;;;;;5032551;28;20501;-67
2023/08/19 09:49:00;;;;;;;6.28;2.70;;;;;;;;;;5032458;28;20045;-68
2023/08/19 09:51:27;;;;;;;5.90;3.10;;;;;;;;;;5034204;28;20029;-68
2023/08/19 09:53:56;;;;;;;5.22;3.00;;;;;;;;;;5033498;28;20083;-67
2023/08/19 09:56:24;;;;;;;7.18;2.50;;;;;;;;;;5032222;28;20028;-68
2023/08/19 09:58:53;;;;;;;6.05;2.70;;;;;;;;;;5033845;28;20440;-67
2023/08/19 10:01:22;;;;;;;11.80;2.40;;;;;;;;;;5032428;28;20028;-68
2023/08/19 10:03:49;;;;;;;5.50;2.70;;;;;;;;;;5033596;28;20107;-68
2023/08/19 10:06:24;;;;;;;6.90;2.42;;;;;;;;;;5033762;28;20021;-67
2023/08/19 10:08:55;;;;;;;5.60;2.78;;;;;;;;;;5033760;28;20034;-68
2023/08/19 10:11:22;;;;;;;6.32;2.60;;;;;;;;;;5032286;28;20120;-68
2023/08/19 10:13:49;;;;;;;6.93;3.20;;;;;;;;;;5033588;28;20467;-67
2023/08/19 10:16:15;;;;;;;4.93;2.53;;;;;;;;;;5032773;28;20041;-67
2023/08/19 10:18:44;;;;;;;4.38;2.40;;;;;;;;;;5032688;28;20340;-67
2023/08/19 10:21:13;;;;;;;4.90;2.58;;;;;;;;;;5033074;28;20049;-67
2023/08/19 10:23:42;;;;;;;6.97;4.78;;;;;;;;;;5033336;28;20036;-67
2023/08/19 10:26:08;;;;;;;6.53;2.95;;;;;;;;;;5032099;28;20065;-68
2023/08/19 10:28:33;;;;;;;5.97;2.53;;;;;;;;;;5033276;28;20048;-67
2023/08/19 10:31:05;;;;;;;5.10;2.28;;;;;;;;;;5033081;28;20035;-68
2023/08/19 10:33:45;;;;;;;4.57;2.15;;;;;;;;;;5031699;28;20037;-70
2023/08/19 10:36:18;;;;;;;6.95;2.70;;;;;;;;;;5032911;28;20048;-68
2023/08/19 10:38:53;;;;;;;5.00;2.55;;;;;;;;;;5032967;28;20030;-69
2023/08/19 10:41:26;;;;;;;5.97;2.72;;;;;;;;;;5031717;28;20122;-69
2023/08/19 10:43:57;;;;;;;;;;;;;;;;;;5033374;28;20034;-69
2023/08/19 10:46:36;;;;;;;4.63;2.40;;;;;;;;;;5031457;28;19917;-70
2023/08/19 10:49:04;;;;;;;5.93;2.60;;;;;;;;;;5031185;28;20037;-70
2023/08/19 10:51:53;;;;;;;6.07;2.60;;;;;;;;;;5032713;28;20024;-68
2023/08/19 10:54:40;;;;;;;6.97;2.60;;;;;;;;;;5031259;28;20511;-67
2023/08/19 10:57:09;;;;;;;9.43;2.55;;;;;;;;;;5031036;28;20038;-69
2023/08/19 10:59:36;;;;;;;5.75;2.20;;;;;;;;;;5032232;28;20021;-69
2023/08/19 11:02:04;;;;;;;3.33;2.00;;;;;;;;;;5031923;28;20206;-69
2023/08/19 11:04:31;;;;;;;6.50;2.17;;;;;;;;;;5030363;28;20029;-68
2023/08/19 11:06:57;;;;;;;7.38;2.63;;;;;;;;;;5040917;28;20098;-69
2023/08/19 11:09:26;;;;;;;3.30;2.40;;;;;;;;;;5041255;28;20263;-69
2023/08/19 11:11:56;;;;;;;5.82;2.40;;;;;;;;;;5044887;28;20443;-69
2023/08/19 11:14:22;;;;;;;5.18;3.05;;;;;;;;;;5052001;28;20470;-70
2023/08/19 11:16:49;;;;;;;6.15;2.90;;;;;;;;;;5052000;28;20044;-70
2023/08/19 11:19:14;;;;;;;8.63;2.60;;;;;;;;;;5052139;28;20041;-69
2023/08/19 11:21:42;;;;;;;3.58;2.58;;;;;;;;;;5052207;28;20024;-70
2023/08/19 11:24:09;;;;;;;6.13;2.35;;;;;;;;;;5028771;28;20072;-70
2023/08/19 11:26:42;;;;;;;6.93;2.38;;;;;;;;;;5033545;28;20436;-70
2023/08/19 11:29:08;;;;;;;7.53;2.72;;;;;;;;;;5037175;28;20525;-69
2023/08/19 11:31:35;;;;;;;7.40;2.50;;;;;;;;;;5038575;28;20029;-69
2023/08/19 11:34:11;;;;;;;4.45;2.60;;;;;;;;;;5031540;28;20071;-70
2023/08/19 11:36:37;;;;;;;4.78;2.60;;;;;;;;;;5031148;28;20036;-69
2023/08/19 11:39:04;;;;;;;3.28;2.30;;;;;;;;;;5031865;28;20022;-70
2023/08/19 11:41:31;;;;;;;3.60;2.50;;;;;;;;;;5039967;28;20211;-69
2023/08/19 11:43:58;;;;;;;7.75;3.13;;;;;;;;;;5039961;28;20052;-70
2023/08/19 11:46:30;;;;;;;5.75;2.28;;;;;;;;;;5047156;28;20034;-69
2023/08/19 11:48:57;;;;;;;8.35;3.38;;;;;;;;;;5031664;28;20040;-69
2023/08/19 11:51:26;;;;;;;4.63;2.70;;;;;;;;;;5031798;28;20075;-69
2023/08/19 11:53:54;;;;;;;6.88;2.50;;;;;;;;;;5031446;28;20494;-70
2023/08/19 11:56:20;;;;;;;3.40;2.20;;;;;;;;;;5030289;28;20071;-70
2023/08/19 11:58:51;;;;;;;6.55;2.28;;;;;;;;;;5039357;28;20040;-69
2023/08/19 12:01:18;;;;;;;6.15;2.20;;;;;;;;;;5039523;28;20044;-68
2023/08/19 12:03:49;;;;;;;3.75;2.20;;;;;;;;;;5039701;28;20049;-68
2023/08/19 12:06:15;;;;;;;3.75;2.05;;;;;;;;;;5031018;28;20030;-68
2023/08/19 12:08:43;;;;;;;4.47;2.13;;;;;;;;;;5031709;28;20032;-68
2023/08/19 12:11:10;;;;;;;4.43;2.50;;;;;;;;;;5029992;28;20411;-69
2023/08/19 12:13:35;;;;;;;5.25;2.30;;;;;;;;;;5030425;28;20096;-69
2023/08/19 12:16:02;;;;;;;5.03;2.20;;;;;;;;;;5031098;28;20472;-69
2023/08/19 12:18:32;;;;;;;3.97;1.83;;;;;;;;;;5031302;28;20164;-70
2023/08/19 12:20:59;;;;;;;8.50;2.20;;;;;;;;;;5031424;28;20041;-70
2023/08/19 12:23:25;;;;;;;5.93;2.58;;;;;;;;;;5030123;28;20476;-70
2023/08/19 12:25:57;;;;;;;6.18;2.70;;;;;;;;;;5029837;28;20518;-69
2023/08/19 12:28:23;;;;;;;5.00;2.40;;;;;;;;;;5030390;28;20068;-70
2023/08/19 12:30:50;;;;;;;4.35;2.10;;;;;;;;;;5026479;28;20025;-71
2023/08/19 12:33:18;;;;;;;5.72;2.45;;;;;;;;;;5031042;28;20086;-70
2023/08/19 12:35:47;;;;;;;3.25;2.30;;;;;;;;;;5031015;28;20021;-70
2023/08/19 12:38:14;;;;;;;4.03;1.92;;;;;;;;;;5030852;28;20086;-70
2023/08/19 12:40:41;;;;;;;4.50;2.30;;;;;;;;;;5039321;28;20017;-69
2023/08/19 12:43:07;;;;;;;4.40;2.00;;;;;;;;;;5030697;28;20116;-70
2023/08/19 12:45:33;;;;;;;4.10;2.00;;;;;;;;;;5031157;28;20099;-70
2023/08/19 12:47:58;;;;;;;4.30;2.22;;;;;;;;;;5039540;28;20079;-69
2023/08/19 12:50:24;;;;;;;5.82;2.40;;;;;;;;;;5039008;28;20025;-69
2023/08/19 12:52:50;;;;;;;5.95;2.30;;;;;;;;;;5034810;28;20052;-70
2023/08/19 12:55:23;;;;;;;5.88;2.10;;;;;;;;;;5034658;28;20031;-69
2023/08/19 12:57:54;;;;;;;5.20;2.10;;;;;;;;;;5034358;28;20034;-69
2023/08/19 13:00:25;;;;;;;3.78;2.15;;;;;;;;;;5034638;28;20037;-69
2023/08/19 13:02:51;;;;;;;5.78;2.30;;;;;;;;;;5034332;28;20030;-69
2023/08/19 13:05:17;;;;;;;4.18;2.03;;;;;;;;;;5034456;28;20017;-69
2023/08/19 13:07:44;;;;;;;3.92;2.20;;;;;;;;;;5034074;28;20559;-70
2023/08/19 13:10:11;;;;;;;4.75;2.05;;;;;;;;;;5034220;28;20037;-68
2023/08/19 13:12:38;;;;;;;5.25;2.10;;;;;;;;;;5034571;28;20041;-69
2023/08/19 13:15:04;;;;;;;4.25;2.05;;;;;;;;;;5034131;28;20104;-70
2023/08/19 13:17:30;;;;;;;5.97;1.90;;;;;;;;;;5034092;28;20549;-70
2023/08/19 13:19:55;;;;;;;3.80;1.95;;;;;;;;;;5033986;28;20021;-70
2023/08/19 13:22:22;;;;;;;6.90;2.28;;;;;;;;;;5034019;28;20107;-69
2023/08/19 13:24:48;;;;;;;6.25;2.08;;;;;;;;;;5034226;28;20064;-70
2023/08/19 13:27:15;;;;;;;3.80;1.80;;;;;;;;;;5034069;28;20479;-69
2023/08/19 13:29:41;;;;;;;5.95;2.22;;;;;;;;;;5035646;28;20391;-70
2023/08/19 13:32:08;;;;;;;7.00;2.30;;;;;;;;;;5040925;28;20479;-70
2023/08/19 13:34:34;;;;;;;7.07;2.17;;;;;;;;;;5033638;28;20486;-71
2023/08/19 13:36:59;;;;;;;7.75;2.10;;;;;;;;;;5034007;28;20044;-70
2023/08/19 13:39:27;;;;;;;2.50;2.00;;;;;;;;;;5032509;28;20044;-71
2023/08/19 13:41:54;;;;;;;4.82;2.10;;;;;;;;;;5032826;28;20450;-70
2023/08/19 13:44:19;;;;;;;4.53;2.42;;;;;;;;;;5034005;28;20104;-69
2023/08/19 13:46:46;;;;;;;4.93;2.22;;;;;;;;;;5034105;28;20495;-71
2023/08/19 13:49:12;;;;;;;6.60;2.10;;;;;;;;;;5032588;28;20025;-70
2023/08/19 13:51:37;;;;;;;7.93;2.05;;;;;;;;;;5033047;28;20033;-71
2023/08/19 13:54:04;;;;;;;6.13;2.25;;;;;;;;;;5028206;28;20028;-70
2023/08/19 13:56:29;;;;;;;4.20;2.10;;;;;;;;;;5040851;28;20037;-69
2023/08/19 13:58:55;;;;;;;5.18;2.28;;;;;;;;;;5034247;28;20027;-70
2023/08/19 14:01:21;;;;;;;3.60;2.30;;;;;;;;;;5033649;28;20533;-70
2023/08/19 14:03:47;;;;;;;4.88;2.00;;;;;;;;;;5032981;28;20021;-70
2023/08/19 14:06:13;;;;;;;4.50;1.92;;;;;;;;;;5033326;28;20029;-70
2023/08/19 14:08:39;;;;;;;4.18;2.10;;;;;;;;;;5031994;28;20076;-70
2023/08/19 14:11:07;;;;;;;3.15;1.80;;;;;;;;;;5033292;28;20040;-70
2023/08/19 14:13:33;;;;;;;8.05;1.90;;;;;;;;;;5031879;28;20029;-71
2023/08/19 14:16:00;;;;;;;3.10;1.90;;;;;;;;;;5033127;28;20059;-70
2023/08/19 14:18:26;;;;;;;3.83;1.90;;;;;;;;;;5032831;28;20032;-71
2023/08/19 14:20:51;;;;;;;5.60;1.85;;;;;;;;;;5032980;28;20407;-70
2023/08/19 14:23:17;;;;;;;2.33;1.70;;;;;;;;;;5033397;28;20396;-70
2023/08/19 14:25:43;;;;;;;9.75;2.40;;;;;;;;;;5032883;28;20149;-71
2023/08/19 14:28:08;;;;;;;3.85;2.00;;;;;;;;;;5044084;28;20040;-69
2023/08/19 14:30:35;;;;;;;3.65;1.95;;;;;;;;;;5052730;28;20056;-70
2023/08/19 14:33:03;;;;;;;3.92;1.80;;;;;;;;;;5044772;28;20514;-70
2023/08/19 14:35:28;;;;;;;3.00;1.73;;;;;;;;;;5032581;28;20049;-70
2023/08/19 14:37:54;;;;;;;7.90;1.85;;;;;;;;;;5031300;28;20476;-69
2023/08/19 14:40:23;;;;;;;3.92;1.55;;;;;;;;;;5029093;28;20037;-69
2023/08/19 14:42:54;;;;;;;2.50;1.80;;;;;;;;;;5030224;28;20044;-70